DAIDK EDXW-EDDB
Flight info
| Callsign | DAIDK |
|---|---|
| Flight time | 0h 54m |
| Altitude | 41000 |
| Route | OLDIP1A OLDIP DCT BADOS DCT OMWEG Y348 ELSOB L619 VIBIS T209 OGBER OGBER1R |
| Aircraft | C750/M-SBDE3FGHRWXY/S |
Departure
| Time | 2026-05-01 12:28 |
|---|---|
| Airport | Westerland Sylt Airport (EDXW) |
Arrival
| Time | 2026-05-01 13:23 |
|---|---|
| Airport | Berlin Brandenburg Airport (EDDB) |
| Time | Latitude | Longitude | Altitude | Speed | Heading |
|---|---|---|---|---|---|
| 2026-05-01 12:01 | 54.92070 | 8.33964 | 46 ft | 0 kts | 85° |
| 2026-05-01 12:23 | 54.92068 | 8.33968 | 46 ft | 0 kts | 118° |
| 2026-05-01 12:23 | 54.92056 | 8.33956 | 45 ft | 4 kts | 224° |
| 2026-05-01 12:24 | 54.92039 | 8.33911 | 44 ft | 5 kts | 261° |
| 2026-05-01 12:24 | 54.92015 | 8.33808 | 42 ft | 11 kts | 247° |
| 2026-05-01 12:24 | 54.91977 | 8.33669 | 37 ft | 14 kts | 243° |
| 2026-05-01 12:24 | 54.91957 | 8.33503 | 32 ft | 14 kts | 265° |
| 2026-05-01 12:25 | 54.91950 | 8.33370 | 32 ft | 10 kts | 265° |
| 2026-05-01 12:25 | 54.91948 | 8.33339 | 32 ft | 0 kts | 262° |
| 2026-05-01 12:27 | 54.91943 | 8.33322 | 32 ft | 5 kts | 240° |
| 2026-05-01 12:28 | 54.91907 | 8.33321 | 31 ft | 1 kts | 149° |
| 2026-05-01 12:28 | 54.91859 | 8.33382 | 32 ft | 34 kts | 145° |
| 2026-05-01 12:28 | 54.90672 | 8.35031 | 884 ft | 122 kts | 137° |
| 2026-05-01 12:29 | 54.90167 | 8.36083 | 1977 ft | 99 kts | 133° |
| 2026-05-01 12:29 | 54.89836 | 8.37056 | 2902 ft | 107 kts | 124° |
| 2026-05-01 12:29 | 54.88697 | 8.39686 | 3941 ft | 152 kts | 138° |
| 2026-05-01 12:30 | 54.87248 | 8.42464 | 5536 ft | 156 kts | 136° |
| 2026-05-01 12:30 | 54.86527 | 8.43853 | 6312 ft | 156 kts | 137° |
| 2026-05-01 12:30 | 54.85791 | 8.45252 | 7081 ft | 158 kts | 136° |
| 2026-05-01 12:31 | 54.85047 | 8.46682 | 7833 ft | 161 kts | 136° |
| 2026-05-01 12:31 | 54.84292 | 8.48090 | 8618 ft | 162 kts | 140° |
| 2026-05-01 12:31 | 54.83492 | 8.49415 | 9439 ft | 161 kts | 141° |
| 2026-05-01 12:31 | 54.82701 | 8.50767 | 10236 ft | 157 kts | 140° |
| 2026-05-01 12:32 | 54.81963 | 8.52056 | 10853 ft | 146 kts | 141° |
| 2026-05-01 12:32 | 54.80482 | 8.54590 | 12067 ft | 152 kts | 141° |
| 2026-05-01 12:32 | 54.79739 | 8.55873 | 12704 ft | 153 kts | 141° |
| 2026-05-01 12:33 | 54.78978 | 8.57184 | 13317 ft | 157 kts | 141° |
| 2026-05-01 12:33 | 54.78172 | 8.58566 | 13857 ft | 168 kts | 140° |
| 2026-05-01 12:33 | 54.77326 | 8.60026 | 14473 ft | 175 kts | 140° |
| 2026-05-01 12:33 | 54.76452 | 8.61532 | 15094 ft | 179 kts | 140° |
| 2026-05-01 12:34 | 54.75557 | 8.63073 | 15751 ft | 183 kts | 140° |
| 2026-05-01 12:34 | 54.74647 | 8.64638 | 16423 ft | 186 kts | 140° |
| 2026-05-01 12:34 | 54.73722 | 8.66228 | 17120 ft | 189 kts | 139° |
| 2026-05-01 12:34 | 54.72783 | 8.67840 | 17831 ft | 191 kts | 139° |
| 2026-05-01 12:35 | 54.71830 | 8.69475 | 18552 ft | 194 kts | 139° |
| 2026-05-01 12:35 | 54.70865 | 8.71129 | 19209 ft | 196 kts | 138° |
| 2026-05-01 12:35 | 54.69856 | 8.72867 | 19656 ft | 211 kts | 138° |
| 2026-05-01 12:35 | 54.68812 | 8.74655 | 20247 ft | 220 kts | 137° |
| 2026-05-01 12:36 | 54.67689 | 8.76567 | 20796 ft | 232 kts | 137° |
| 2026-05-01 12:36 | 54.66521 | 8.78563 | 21426 ft | 240 kts | 137° |
| 2026-05-01 12:36 | 54.65317 | 8.80621 | 22109 ft | 247 kts | 137° |
| 2026-05-01 12:36 | 54.64080 | 8.82731 | 22757 ft | 256 kts | 136° |
| 2026-05-01 12:37 | 54.62777 | 8.84950 | 23274 ft | 269 kts | 136° |
| 2026-05-01 12:37 | 54.61419 | 8.87262 | 23885 ft | 279 kts | 136° |
| 2026-05-01 12:37 | 54.59984 | 8.89703 | 24058 ft | 304 kts | 136° |
| 2026-05-01 12:37 | 54.58403 | 8.92388 | 24063 ft | 333 kts | 136° |
| 2026-05-01 12:38 | 54.56686 | 8.95305 | 24068 ft | 360 kts | 136° |
| 2026-05-01 12:38 | 54.54869 | 8.98384 | 24067 ft | 383 kts | 136° |
| 2026-05-01 12:38 | 54.52916 | 9.01691 | 24187 ft | 401 kts | 136° |
| 2026-05-01 12:38 | 54.50883 | 9.05127 | 24331 ft | 417 kts | 136° |
| 2026-05-01 12:39 | 54.48772 | 9.08691 | 24383 ft | 434 kts | 136° |
| 2026-05-01 12:39 | 54.46584 | 9.12380 | 24382 ft | 445 kts | 136° |
| 2026-05-01 12:39 | 54.44360 | 9.16121 | 24380 ft | 445 kts | 136° |
| 2026-05-01 12:39 | 54.42218 | 9.19720 | 24357 ft | 416 kts | 136° |
| 2026-05-01 12:40 | 54.40154 | 9.23181 | 24299 ft | 415 kts | 136° |
| 2026-05-01 12:40 | 54.38076 | 9.26658 | 24249 ft | 418 kts | 136° |
| 2026-05-01 12:40 | 54.35997 | 9.30133 | 24314 ft | 420 kts | 136° |
| 2026-05-01 12:40 | 54.33935 | 9.33580 | 24965 ft | 419 kts | 136° |
| 2026-05-01 12:41 | 54.31833 | 9.37086 | 25484 ft | 423 kts | 136° |
| 2026-05-01 12:41 | 54.29709 | 9.40619 | 26040 ft | 425 kts | 136° |
| 2026-05-01 12:41 | 54.27588 | 9.44144 | 26628 ft | 427 kts | 136° |
| 2026-05-01 12:41 | 54.25439 | 9.47711 | 27104 ft | 432 kts | 136° |
| 2026-05-01 12:42 | 54.23277 | 9.51298 | 27735 ft | 433 kts | 136° |
| 2026-05-01 12:42 | 54.21132 | 9.54851 | 28278 ft | 436 kts | 136° |
| 2026-05-01 12:42 | 54.18957 | 9.58433 | 28709 ft | 442 kts | 136° |
| 2026-05-01 12:42 | 54.16728 | 9.62107 | 29219 ft | 446 kts | 136° |
| 2026-05-01 12:43 | 54.14493 | 9.65793 | 29750 ft | 450 kts | 136° |
| 2026-05-01 12:43 | 54.12226 | 9.69525 | 30184 ft | 454 kts | 136° |
| 2026-05-01 12:43 | 54.09939 | 9.73275 | 30702 ft | 457 kts | 136° |
| 2026-05-01 12:43 | 54.07639 | 9.77045 | 31189 ft | 459 kts | 135° |
| 2026-05-01 12:44 | 54.05324 | 9.80833 | 31724 ft | 459 kts | 136° |
| 2026-05-01 12:44 | 54.03033 | 9.84577 | 32453 ft | 455 kts | 136° |
| 2026-05-01 12:44 | 53.98532 | 9.91911 | 33483 ft | 439 kts | 136° |
| 2026-05-01 12:45 | 53.93959 | 9.99343 | 33375 ft | 468 kts | 136° |
| 2026-05-01 12:45 | 53.91567 | 10.03219 | 33381 ft | 480 kts | 136° |
| 2026-05-01 12:45 | 53.89123 | 10.07171 | 33385 ft | 491 kts | 136° |
| 2026-05-01 12:46 | 53.84119 | 10.15248 | 33380 ft | 506 kts | 136° |
| 2026-05-01 12:46 | 53.78994 | 10.23488 | 33385 ft | 509 kts | 136° |
| 2026-05-01 12:47 | 53.73846 | 10.31739 | 33390 ft | 510 kts | 136° |
| 2026-05-01 12:47 | 53.68695 | 10.39954 | 33388 ft | 508 kts | 136° |
| 2026-05-01 12:48 | 53.63551 | 10.48150 | 33389 ft | 512 kts | 136° |
| 2026-05-01 12:48 | 53.58363 | 10.56368 | 33388 ft | 512 kts | 136° |
| 2026-05-01 12:49 | 53.53170 | 10.64578 | 33384 ft | 512 kts | 136° |
| 2026-05-01 12:49 | 53.47955 | 10.72784 | 33381 ft | 511 kts | 136° |
| 2026-05-01 12:50 | 53.42783 | 10.80899 | 33379 ft | 513 kts | 136° |
| 2026-05-01 12:50 | 53.37560 | 10.89062 | 33385 ft | 514 kts | 136° |
| 2026-05-01 12:51 | 53.32308 | 10.97245 | 33384 ft | 516 kts | 136° |
| 2026-05-01 12:52 | 53.16615 | 11.21519 | 33387 ft | 516 kts | 137° |
| 2026-05-01 12:53 | 53.11870 | 11.29788 | 33276 ft | 465 kts | 126° |
| 2026-05-01 12:53 | 53.10231 | 11.34015 | 33117 ft | 414 kts | 118° |
| 2026-05-01 12:53 | 53.08833 | 11.38323 | 32933 ft | 431 kts | 117° |
| 2026-05-01 12:54 | 53.07486 | 11.42403 | 32754 ft | 369 kts | 118° |
| 2026-05-01 12:54 | 53.05203 | 11.49301 | 32045 ft | 335 kts | 117° |
| 2026-05-01 12:54 | 53.04053 | 11.52817 | 31744 ft | 366 kts | 117° |
| 2026-05-01 12:55 | 53.02297 | 11.61340 | 30947 ft | 420 kts | 104° |
| 2026-05-01 12:55 | 53.01531 | 11.66235 | 29955 ft | 453 kts | 104° |
| 2026-05-01 12:55 | 53.00680 | 11.71348 | 28892 ft | 460 kts | 105° |
| 2026-05-01 12:56 | 52.99782 | 11.76473 | 27855 ft | 464 kts | 105° |
| 2026-05-01 12:56 | 52.99072 | 11.81698 | 26807 ft | 466 kts | 97° |
| 2026-05-01 12:56 | 52.98835 | 11.87073 | 25811 ft | 467 kts | 91° |
| 2026-05-01 12:56 | 52.98715 | 11.92484 | 24858 ft | 470 kts | 92° |
| 2026-05-01 12:57 | 52.98567 | 11.97848 | 24009 ft | 471 kts | 92° |
| 2026-05-01 12:57 | 52.98251 | 12.08631 | 22822 ft | 431 kts | 92° |
| 2026-05-01 12:57 | 52.98130 | 12.13316 | 22520 ft | 398 kts | 92° |
| 2026-05-01 12:58 | 52.98000 | 12.17916 | 22011 ft | 397 kts | 92° |
| 2026-05-01 12:58 | 52.97859 | 12.22471 | 21503 ft | 395 kts | 92° |
| 2026-05-01 12:58 | 52.97563 | 12.26929 | 20979 ft | 393 kts | 101° |
| 2026-05-01 12:59 | 52.95241 | 12.35027 | 19970 ft | 392 kts | 126° |
| 2026-05-01 12:59 | 52.93329 | 12.38250 | 19463 ft | 392 kts | 138° |
| 2026-05-01 12:59 | 52.88786 | 12.43250 | 18421 ft | 389 kts | 145° |
| 2026-05-01 13:00 | 52.84301 | 12.48082 | 17405 ft | 380 kts | 145° |
| 2026-05-01 13:00 | 52.82081 | 12.50457 | 16903 ft | 377 kts | 145° |
| 2026-05-01 13:01 | 52.77743 | 12.55084 | 15932 ft | 369 kts | 145° |
| 2026-05-01 13:01 | 52.75590 | 12.57390 | 15440 ft | 366 kts | 145° |
| 2026-05-01 13:01 | 52.71340 | 12.61911 | 14487 ft | 359 kts | 145° |
| 2026-05-01 13:02 | 52.69251 | 12.64130 | 14003 ft | 357 kts | 144° |
| 2026-05-01 13:07 | 52.68993 | 13.43859 | 12170 ft | 342 kts | 80° |
| 2026-05-01 13:07 | 52.69257 | 13.46415 | 12146 ft | 342 kts | 80° |
| 2026-05-01 13:07 | 52.69778 | 13.51487 | 12093 ft | 324 kts | 80° |
| 2026-05-01 13:08 | 52.70137 | 13.54975 | 11999 ft | 293 kts | 80° |
| 2026-05-01 13:08 | 52.70461 | 13.58150 | 11859 ft | 269 kts | 80° |
| 2026-05-01 13:08 | 52.70667 | 13.60162 | 11748 ft | 257 kts | 80° |
| 2026-05-01 13:08 | 52.70952 | 13.62971 | 11550 ft | 247 kts | 80° |
| 2026-05-01 13:09 | 52.71234 | 13.65747 | 11340 ft | 245 kts | 80° |
| 2026-05-01 13:09 | 52.71482 | 13.68522 | 11139 ft | 244 kts | 85° |
| 2026-05-01 13:09 | 52.71156 | 13.71277 | 10847 ft | 249 kts | 111° |
| 2026-05-01 13:09 | 52.70123 | 13.73577 | 10610 ft | 253 kts | 136° |
| 2026-05-01 13:10 | 52.68600 | 13.75053 | 10419 ft | 254 kts | 150° |
| 2026-05-01 13:10 | 52.67006 | 13.76295 | 10278 ft | 254 kts | 151° |
| 2026-05-01 13:10 | 52.65412 | 13.77556 | 10129 ft | 254 kts | 150° |
| 2026-05-01 13:10 | 52.63841 | 13.78816 | 9955 ft | 254 kts | 150° |
| 2026-05-01 13:11 | 52.62250 | 13.80087 | 9787 ft | 254 kts | 151° |
| 2026-05-01 13:11 | 52.60658 | 13.81351 | 9615 ft | 253 kts | 151° |
| 2026-05-01 13:11 | 52.59073 | 13.82610 | 9441 ft | 252 kts | 151° |
| 2026-05-01 13:11 | 52.57502 | 13.83877 | 9250 ft | 250 kts | 149° |
| 2026-05-01 13:12 | 52.56216 | 13.85718 | 8930 ft | 245 kts | 122° |
| 2026-05-01 13:12 | 52.55584 | 13.88261 | 8680 ft | 239 kts | 98° |
| 2026-05-01 13:12 | 52.55670 | 13.90913 | 8441 ft | 235 kts | 75° |
| 2026-05-01 13:12 | 52.56231 | 13.93417 | 8291 ft | 232 kts | 69° |
| 2026-05-01 13:13 | 52.56811 | 13.95905 | 8147 ft | 233 kts | 69° |
| 2026-05-01 13:13 | 52.57383 | 13.98395 | 8014 ft | 234 kts | 69° |
| 2026-05-01 13:13 | 52.57958 | 14.00888 | 7861 ft | 233 kts | 69° |
| 2026-05-01 13:13 | 52.58526 | 14.03381 | 7704 ft | 232 kts | 70° |
| 2026-05-01 13:14 | 52.58722 | 14.06004 | 7469 ft | 235 kts | 95° |
| 2026-05-01 13:14 | 52.58156 | 14.08513 | 7210 ft | 237 kts | 121° |
| 2026-05-01 13:14 | 52.56943 | 14.10355 | 6965 ft | 242 kts | 147° |
| 2026-05-01 13:14 | 52.55409 | 14.11389 | 6796 ft | 241 kts | 156° |
| 2026-05-01 13:15 | 52.53737 | 14.11949 | 6541 ft | 251 kts | 180° |
| 2026-05-01 13:15 | 52.52099 | 14.11058 | 6285 ft | 255 kts | 211° |
| 2026-05-01 13:15 | 52.50928 | 14.08927 | 6012 ft | 253 kts | 242° |
| 2026-05-01 13:15 | 52.50280 | 14.06283 | 5880 ft | 247 kts | 250° |
| 2026-05-01 13:16 | 52.49729 | 14.03626 | 5749 ft | 246 kts | 252° |
| 2026-05-01 13:16 | 52.49182 | 14.00963 | 5653 ft | 247 kts | 250° |
| 2026-05-01 13:16 | 52.48560 | 13.98340 | 5497 ft | 246 kts | 248° |
| 2026-05-01 13:17 | 52.46691 | 13.90513 | 4972 ft | 247 kts | 249° |
| 2026-05-01 13:17 | 52.46074 | 13.87894 | 4643 ft | 245 kts | 250° |
| 2026-05-01 13:18 | 52.44868 | 13.82806 | 4000 ft | 232 kts | 250° |
| 2026-05-01 13:18 | 52.44322 | 13.80496 | 3712 ft | 208 kts | 251° |
| 2026-05-01 13:18 | 52.43826 | 13.78371 | 3435 ft | 192 kts | 250° |
| 2026-05-01 13:18 | 52.43344 | 13.76334 | 3198 ft | 193 kts | 251° |
| 2026-05-01 13:19 | 52.42862 | 13.74288 | 2920 ft | 192 kts | 250° |
| 2026-05-01 13:19 | 52.42386 | 13.72259 | 2668 ft | 184 kts | 250° |
| 2026-05-01 13:19 | 52.41506 | 13.68553 | 2213 ft | 164 kts | 250° |
| 2026-05-01 13:20 | 52.41113 | 13.66869 | 1995 ft | 151 kts | 251° |
| 2026-05-01 13:20 | 52.40745 | 13.65329 | 1755 ft | 139 kts | 251° |
| 2026-05-01 13:20 | 52.40420 | 13.63933 | 1609 ft | 127 kts | 251° |
| 2026-05-01 13:21 | 52.39787 | 13.61245 | 1288 ft | 126 kts | 250° |
| 2026-05-01 13:21 | 52.39469 | 13.59913 | 1118 ft | 124 kts | 252° |
| 2026-05-01 13:21 | 52.39161 | 13.58611 | 955 ft | 122 kts | 250° |
| 2026-05-01 13:21 | 52.38857 | 13.57317 | 799 ft | 123 kts | 251° |
| 2026-05-01 13:22 | 52.38535 | 13.56010 | 610 ft | 127 kts | 249° |
| 2026-05-01 13:22 | 52.38218 | 13.54697 | 421 ft | 124 kts | 250° |
| 2026-05-01 13:22 | 52.37919 | 13.53390 | 257 ft | 122 kts | 250° |
| 2026-05-01 13:22 | 52.37615 | 13.52112 | 153 ft | 116 kts | 249° |
| 2026-05-01 13:23 | 52.37426 | 13.51294 | 151 ft | 20 kts | 272° |
| 2026-05-01 13:23 | 52.37445 | 13.51270 | 151 ft | 4 kts | 351° |
| 2026-05-01 13:23 | 52.37480 | 13.51303 | 151 ft | 8 kts | 37° |
| 2026-05-01 13:23 | 52.37540 | 13.51359 | 151 ft | 13 kts | 23° |
| 2026-05-01 13:24 | 52.37646 | 13.51395 | 151 ft | 16 kts | 2° |
| 2026-05-01 13:24 | 52.37753 | 13.51411 | 151 ft | 15 kts | 7° |
| 2026-05-01 13:24 | 52.37856 | 13.51434 | 151 ft | 15 kts | 7° |
| 2026-05-01 13:25 | 52.37918 | 13.51305 | 151 ft | 8 kts | 252° |
| 2026-05-01 13:25 | 52.37904 | 13.51209 | 151 ft | 10 kts | 261° |
| 2026-05-01 13:25 | 52.37898 | 13.51082 | 151 ft | 13 kts | 272° |
| 2026-05-01 13:25 | 52.37890 | 13.50924 | 151 ft | 13 kts | 253° |
| 2026-05-01 13:26 | 52.37872 | 13.50794 | 151 ft | 9 kts | 241° |
| 2026-05-01 13:26 | 52.37850 | 13.50705 | 151 ft | 8 kts | 274° |
| 2026-05-01 13:26 | 52.37886 | 13.50668 | 151 ft | 6 kts | 19° |
| 2026-05-01 13:26 | 52.37920 | 13.50696 | 151 ft | 5 kts | 28° |
| 2026-05-01 13:27 | 52.37932 | 13.50706 | 151 ft | 0 kts | 28° |